FIN1RA EFHK-LFMN
Flight info
| Callsign | FIN1RA |
|---|---|
| Flight time | N/A |
| Altitude | 34000 |
| Route | VALOX Y117 ROSAX DCT ANFEV DCT PENOR DCT BODLA DCT IBAGA DCT DKB N869 TEDGO DCT SONOM/N0453F350 DCT GERSA DCT SOSON DCT ODINA DCT ENOBA Z185 ASBOP/N0384F190 Z185 BORDI |
| Aircraft | A321/M-SDE3FGHIRWY/LB1 |
Departure
| Time | 2026-05-08 04:25 |
|---|---|
| Airport | Helsinki Vantaa Airport (EFHK) |
Arrival
| Time | N/A |
|---|---|
| Airport | Nice-Côte d'Azur Airport (LFMN) |
| Time | Latitude | Longitude | Altitude | Speed | Heading |
|---|---|---|---|---|---|
| 2026-05-08 04:06 | 60.31973 | 24.96737 | 167 ft | 0 kts | 177° |
| 2026-05-08 04:16 | 60.31985 | 24.96736 | 167 ft | 2 kts | 177° |
| 2026-05-08 04:16 | 60.32000 | 24.96734 | 167 ft | 2 kts | 177° |
| 2026-05-08 04:16 | 60.32014 | 24.96732 | 167 ft | 2 kts | 176° |
| 2026-05-08 04:17 | 60.32030 | 24.96730 | 167 ft | 2 kts | 177° |
| 2026-05-08 04:17 | 60.32043 | 24.96738 | 167 ft | 1 kts | 228° |
| 2026-05-08 04:17 | 60.32046 | 24.96747 | 167 ft | 0 kts | 231° |
| 2026-05-08 04:19 | 60.32046 | 24.96746 | 167 ft | 0 kts | 231° |
| 2026-05-08 04:19 | 60.32011 | 24.96666 | 167 ft | 16 kts | 222° |
| 2026-05-08 04:19 | 60.31908 | 24.96446 | 168 ft | 22 kts | 229° |
| 2026-05-08 04:20 | 60.31857 | 24.96180 | 170 ft | 20 kts | 293° |
| 2026-05-08 04:20 | 60.31920 | 24.95964 | 172 ft | 17 kts | 255° |
| 2026-05-08 04:20 | 60.31848 | 24.95781 | 173 ft | 16 kts | 228° |
| 2026-05-08 04:20 | 60.31767 | 24.95601 | 172 ft | 17 kts | 227° |
| 2026-05-08 04:21 | 60.31685 | 24.95417 | 172 ft | 17 kts | 229° |
| 2026-05-08 04:21 | 60.31601 | 24.95226 | 171 ft | 18 kts | 227° |
| 2026-05-08 04:21 | 60.31509 | 24.95029 | 169 ft | 19 kts | 226° |
| 2026-05-08 04:21 | 60.31411 | 24.94816 | 166 ft | 21 kts | 228° |
| 2026-05-08 04:22 | 60.31307 | 24.94588 | 163 ft | 22 kts | 227° |
| 2026-05-08 04:22 | 60.31201 | 24.94350 | 161 ft | 23 kts | 229° |
| 2026-05-08 04:22 | 60.31095 | 24.94118 | 160 ft | 21 kts | 227° |
| 2026-05-08 04:22 | 60.31029 | 24.93926 | 160 ft | 13 kts | 265° |
| 2026-05-08 04:23 | 60.31068 | 24.93764 | 160 ft | 13 kts | 318° |
| 2026-05-08 04:23 | 60.31153 | 24.93698 | 160 ft | 13 kts | 14° |
| 2026-05-08 04:23 | 60.31200 | 24.93789 | 160 ft | 0 kts | 47° |
| 2026-05-08 04:24 | 60.31319 | 24.94054 | 160 ft | 62 kts | 48° |
| 2026-05-08 04:24 | 60.31779 | 24.95052 | 172 ft | 128 kts | 47° |
| 2026-05-08 04:25 | 60.32488 | 24.96675 | 212 ft | 177 kts | 50° |
| 2026-05-08 04:25 | 60.33239 | 24.98721 | 831 ft | 183 kts | 55° |
| 2026-05-08 04:25 | 60.33919 | 25.00770 | 1703 ft | 175 kts | 45° |
| 2026-05-08 04:25 | 60.34752 | 25.02414 | 2427 ft | 170 kts | 39° |
| 2026-05-08 04:26 | 60.35667 | 25.04114 | 2725 ft | 185 kts | 39° |
| 2026-05-08 04:26 | 60.36616 | 25.05975 | 3032 ft | 200 kts | 41° |
| 2026-05-08 04:26 | 60.37637 | 25.08084 | 3285 ft | 220 kts | 42° |
| 2026-05-08 04:26 | 60.38689 | 25.10462 | 3735 ft | 234 kts | 51° |
| 2026-05-08 04:27 | 60.39236 | 25.13690 | 4122 ft | 258 kts | 84° |
| 2026-05-08 04:27 | 60.38844 | 25.17288 | 4722 ft | 272 kts | 111° |
| 2026-05-08 04:27 | 60.38000 | 25.20721 | 5443 ft | 274 kts | 112° |
| 2026-05-08 04:27 | 60.37158 | 25.24196 | 6113 ft | 278 kts | 112° |
| 2026-05-08 04:28 | 60.36324 | 25.27704 | 6774 ft | 281 kts | 112° |
| 2026-05-08 04:28 | 60.35482 | 25.31276 | 7418 ft | 284 kts | 112° |
| 2026-05-08 04:28 | 60.34565 | 25.34822 | 8034 ft | 290 kts | 123° |
| 2026-05-08 04:28 | 60.33012 | 25.37416 | 8583 ft | 298 kts | 157° |
| 2026-05-08 04:29 | 60.30992 | 25.38107 | 9206 ft | 297 kts | 182° |
| 2026-05-08 04:29 | 60.28931 | 25.37950 | 9825 ft | 300 kts | 185° |
| 2026-05-08 04:29 | 60.26837 | 25.37778 | 10407 ft | 303 kts | 184° |
| 2026-05-08 04:29 | 60.24727 | 25.37515 | 10765 ft | 312 kts | 194° |
| 2026-05-08 04:30 | 60.22754 | 25.35671 | 11014 ft | 314 kts | 224° |
| 2026-05-08 04:30 | 60.21317 | 25.32361 | 11299 ft | 320 kts | 237° |
| 2026-05-08 04:30 | 60.19939 | 25.28728 | 11559 ft | 334 kts | 237° |
| 2026-05-08 04:30 | 60.18495 | 25.24999 | 11807 ft | 347 kts | 236° |
| 2026-05-08 04:31 | 60.16978 | 25.21136 | 12044 ft | 360 kts | 236° |
| 2026-05-08 04:31 | 60.15377 | 25.17097 | 12297 ft | 372 kts | 236° |
| 2026-05-08 04:31 | 60.13759 | 25.13050 | 12726 ft | 377 kts | 236° |
| 2026-05-08 04:31 | 60.12111 | 25.08947 | 13266 ft | 379 kts | 236° |
| 2026-05-08 04:32 | 60.10468 | 25.04867 | 13815 ft | 381 kts | 236° |
| 2026-05-08 04:32 | 60.08795 | 25.00715 | 14346 ft | 382 kts | 236° |
| 2026-05-08 04:32 | 60.07114 | 24.96542 | 14841 ft | 385 kts | 236° |
| 2026-05-08 04:32 | 60.05452 | 24.92427 | 15346 ft | 387 kts | 236° |
| 2026-05-08 04:33 | 60.03744 | 24.88204 | 15861 ft | 388 kts | 236° |
| 2026-05-08 04:33 | 60.02070 | 24.84075 | 16354 ft | 389 kts | 236° |
| 2026-05-08 04:33 | 60.00361 | 24.79875 | 16841 ft | 390 kts | 236° |
| 2026-05-08 04:33 | 59.98657 | 24.75687 | 17285 ft | 392 kts | 236° |
| 2026-05-08 04:34 | 59.96926 | 24.71446 | 17743 ft | 394 kts | 236° |
| 2026-05-08 04:34 | 59.95217 | 24.67258 | 18188 ft | 395 kts | 236° |
| 2026-05-08 04:34 | 59.93477 | 24.63003 | 18623 ft | 396 kts | 236° |
| 2026-05-08 04:34 | 59.91737 | 24.58759 | 19051 ft | 398 kts | 237° |
| 2026-05-08 04:35 | 59.89986 | 24.54493 | 19457 ft | 399 kts | 237° |
| 2026-05-08 04:35 | 59.88226 | 24.50209 | 19811 ft | 401 kts | 236° |
| 2026-05-08 04:35 | 59.86458 | 24.45917 | 20173 ft | 403 kts | 236° |
| 2026-05-08 04:35 | 59.84689 | 24.41634 | 20525 ft | 405 kts | 236° |
| 2026-05-08 04:36 | 59.82898 | 24.37301 | 20892 ft | 406 kts | 236° |
| 2026-05-08 04:36 | 59.81104 | 24.32971 | 21225 ft | 408 kts | 235° |
| 2026-05-08 04:36 | 59.79300 | 24.28627 | 21543 ft | 411 kts | 235° |
| 2026-05-08 04:36 | 59.77473 | 24.24241 | 21846 ft | 413 kts | 235° |
| 2026-05-08 04:37 | 59.75657 | 24.19906 | 22177 ft | 415 kts | 234° |
| 2026-05-08 04:37 | 59.73677 | 24.15717 | 22487 ft | 420 kts | 229° |
| 2026-05-08 04:37 | 59.71509 | 24.11831 | 22797 ft | 425 kts | 225° |
| 2026-05-08 04:37 | 59.69156 | 24.08259 | 23112 ft | 429 kts | 221° |
| 2026-05-08 04:38 | 59.66726 | 24.04799 | 23407 ft | 430 kts | 221° |
| 2026-05-08 04:38 | 59.64279 | 24.01339 | 23684 ft | 432 kts | 221° |
| 2026-05-08 04:38 | 59.61867 | 23.97938 | 23948 ft | 434 kts | 220° |
| 2026-05-08 04:38 | 59.59416 | 23.94487 | 24202 ft | 436 kts | 220° |
| 2026-05-08 04:39 | 59.56941 | 23.91002 | 24460 ft | 437 kts | 220° |
| 2026-05-08 04:39 | 59.54467 | 23.87529 | 24706 ft | 439 kts | 221° |
| 2026-05-08 04:39 | 59.51989 | 23.84056 | 24969 ft | 440 kts | 221° |
| 2026-05-08 04:39 | 59.49533 | 23.80450 | 25210 ft | 440 kts | 224° |
| 2026-05-08 04:40 | 59.47207 | 23.76618 | 25437 ft | 439 kts | 226° |
| 2026-05-08 04:40 | 59.44981 | 23.72500 | 25686 ft | 438 kts | 230° |
| 2026-05-08 04:40 | 59.42874 | 23.68208 | 25997 ft | 437 kts | 231° |
| 2026-05-08 04:40 | 59.40793 | 23.63960 | 26334 ft | 436 kts | 231° |
| 2026-05-08 04:41 | 59.38697 | 23.59687 | 26659 ft | 435 kts | 231° |
| 2026-05-08 04:41 | 59.36621 | 23.55463 | 26961 ft | 435 kts | 231° |
| 2026-05-08 04:41 | 59.34537 | 23.51228 | 27285 ft | 434 kts | 231° |
| 2026-05-08 04:41 | 59.32452 | 23.46993 | 27570 ft | 433 kts | 231° |
| 2026-05-08 04:42 | 59.30375 | 23.42783 | 27844 ft | 433 kts | 231° |
| 2026-05-08 04:42 | 59.28288 | 23.38560 | 28109 ft | 433 kts | 231° |
| 2026-05-08 04:42 | 59.26203 | 23.34349 | 28406 ft | 433 kts | 230° |
| 2026-05-08 04:42 | 59.24102 | 23.30116 | 28702 ft | 432 kts | 230° |
| 2026-05-08 04:43 | 59.22030 | 23.25943 | 28955 ft | 432 kts | 230° |
| 2026-05-08 04:43 | 59.19938 | 23.21739 | 29214 ft | 432 kts | 230° |
| 2026-05-08 04:43 | 59.17854 | 23.17562 | 29502 ft | 432 kts | 230° |
| 2026-05-08 04:43 | 59.15756 | 23.13364 | 29777 ft | 431 kts | 230° |
| 2026-05-08 04:44 | 59.13689 | 23.09234 | 30034 ft | 431 kts | 230° |
| 2026-05-08 04:44 | 59.11579 | 23.05026 | 30289 ft | 431 kts | 230° |
| 2026-05-08 04:44 | 59.09505 | 23.00901 | 30540 ft | 431 kts | 230° |
| 2026-05-08 04:44 | 59.07397 | 22.96712 | 30793 ft | 431 kts | 230° |
| 2026-05-08 04:45 | 59.05327 | 22.92608 | 31042 ft | 430 kts | 230° |
| 2026-05-08 04:45 | 59.03230 | 22.88456 | 31303 ft | 429 kts | 230° |
| 2026-05-08 04:45 | 59.01149 | 22.84343 | 31537 ft | 429 kts | 230° |
| 2026-05-08 04:45 | 58.99075 | 22.80252 | 31773 ft | 429 kts | 230° |
| 2026-05-08 04:46 | 58.96985 | 22.76138 | 32025 ft | 428 kts | 230° |
| 2026-05-08 04:46 | 58.94913 | 22.72070 | 32276 ft | 427 kts | 230° |
| 2026-05-08 04:46 | 58.92827 | 22.67982 | 32497 ft | 427 kts | 230° |
| 2026-05-08 04:46 | 58.90760 | 22.63935 | 32671 ft | 428 kts | 230° |
| 2026-05-08 04:47 | 58.88679 | 22.59866 | 32829 ft | 429 kts | 230° |
| 2026-05-08 04:47 | 58.86599 | 22.55804 | 32965 ft | 430 kts | 229° |
| 2026-05-08 04:47 | 58.84490 | 22.51698 | 33115 ft | 431 kts | 230° |
| 2026-05-08 04:47 | 58.82381 | 22.47601 | 33269 ft | 431 kts | 229° |
| 2026-05-08 04:48 | 58.80266 | 22.43494 | 33407 ft | 432 kts | 229° |
| 2026-05-08 04:48 | 58.78145 | 22.39389 | 33548 ft | 433 kts | 229° |
| 2026-05-08 04:48 | 58.76026 | 22.35294 | 33686 ft | 434 kts | 229° |
| 2026-05-08 04:48 | 58.73902 | 22.31198 | 33821 ft | 435 kts | 228° |
| 2026-05-08 04:49 | 58.71765 | 22.27089 | 33941 ft | 436 kts | 228° |
| 2026-05-08 04:49 | 58.69626 | 22.22980 | 34072 ft | 437 kts | 228° |
| 2026-05-08 04:49 | 58.67482 | 22.18865 | 34177 ft | 438 kts | 228° |
| 2026-05-08 04:49 | 58.65357 | 22.14793 | 34259 ft | 440 kts | 227° |
| 2026-05-08 04:50 | 58.61028 | 22.06525 | 34262 ft | 440 kts | 227° |
| 2026-05-08 04:50 | 58.56707 | 21.98304 | 34261 ft | 440 kts | 227° |
| 2026-05-08 04:51 | 58.52365 | 21.90078 | 34262 ft | 441 kts | 227° |
| 2026-05-08 04:51 | 58.48006 | 21.81845 | 34253 ft | 442 kts | 227° |
| 2026-05-08 04:52 | 58.43658 | 21.73672 | 34261 ft | 443 kts | 227° |
| 2026-05-08 04:52 | 58.39252 | 21.65408 | 34253 ft | 444 kts | 227° |
| 2026-05-08 04:53 | 58.34875 | 21.57235 | 34254 ft | 445 kts | 226° |
| 2026-05-08 04:53 | 58.30434 | 21.48969 | 34255 ft | 447 kts | 226° |
| 2026-05-08 04:54 | 58.26002 | 21.40751 | 34253 ft | 448 kts | 226° |
| 2026-05-08 04:54 | 58.21553 | 21.32533 | 34251 ft | 448 kts | 225° |
| 2026-05-08 04:55 | 58.17108 | 21.24353 | 34251 ft | 449 kts | 225° |
| 2026-05-08 04:55 | 58.12659 | 21.16198 | 34259 ft | 449 kts | 225° |
| 2026-05-08 04:56 | 58.08170 | 21.07997 | 34259 ft | 450 kts | 224° |
| 2026-05-08 04:56 | 58.03657 | 20.99787 | 34254 ft | 451 kts | 224° |
| 2026-05-08 04:57 | 57.99181 | 20.91672 | 34258 ft | 451 kts | 224° |
| 2026-05-08 04:57 | 57.94666 | 20.83519 | 34250 ft | 451 kts | 224° |
| 2026-05-08 04:58 | 57.90130 | 20.75357 | 34249 ft | 452 kts | 224° |
| 2026-05-08 04:58 | 57.85592 | 20.67217 | 34250 ft | 453 kts | 224° |
| 2026-05-08 04:59 | 57.81054 | 20.59110 | 34247 ft | 454 kts | 224° |
| 2026-05-08 04:59 | 57.76472 | 20.50950 | 34248 ft | 455 kts | 224° |
| 2026-05-08 05:00 | 57.71896 | 20.42830 | 34247 ft | 456 kts | 224° |
| 2026-05-08 05:00 | 57.67324 | 20.34747 | 34241 ft | 457 kts | 223° |
| 2026-05-08 05:01 | 57.62717 | 20.26642 | 34243 ft | 456 kts | 223° |
| 2026-05-08 05:01 | 57.58106 | 20.18548 | 34244 ft | 457 kts | 223° |
| 2026-05-08 05:02 | 57.53416 | 20.10340 | 34244 ft | 458 kts | 223° |
| 2026-05-08 05:02 | 57.48773 | 20.02254 | 34243 ft | 458 kts | 223° |
| 2026-05-08 05:03 | 57.44119 | 19.94179 | 34249 ft | 459 kts | 223° |
| 2026-05-08 05:03 | 57.39457 | 19.86122 | 34245 ft | 459 kts | 222° |
| 2026-05-08 05:04 | 57.34804 | 19.78109 | 34245 ft | 460 kts | 222° |
| 2026-05-08 05:04 | 57.30117 | 19.70061 | 34245 ft | 461 kts | 222° |
| 2026-05-08 05:05 | 57.25449 | 19.62078 | 34246 ft | 460 kts | 222° |
| 2026-05-08 05:05 | 57.20746 | 19.54062 | 34248 ft | 460 kts | 221° |
| 2026-05-08 05:06 | 57.16065 | 19.46116 | 34247 ft | 460 kts | 221° |
| 2026-05-08 05:06 | 57.11339 | 19.38124 | 34254 ft | 461 kts | 221° |
| 2026-05-08 05:07 | 57.06623 | 19.30175 | 34251 ft | 462 kts | 220° |
| 2026-05-08 05:07 | 57.01902 | 19.22245 | 34252 ft | 462 kts | 220° |
| 2026-05-08 05:08 | 56.97158 | 19.14307 | 34261 ft | 463 kts | 220° |
| 2026-05-08 05:08 | 56.92422 | 19.06409 | 34247 ft | 464 kts | 220° |
| 2026-05-08 05:09 | 56.87662 | 18.98500 | 34232 ft | 462 kts | 220° |
| 2026-05-08 05:09 | 56.82920 | 18.90647 | 34241 ft | 462 kts | 220° |
| 2026-05-08 05:10 | 56.75805 | 18.78922 | 34228 ft | 462 kts | 220° |
| 2026-05-08 05:11 | 56.71047 | 18.71115 | 34240 ft | 462 kts | 220° |
| 2026-05-08 05:11 | 56.66264 | 18.63294 | 34238 ft | 461 kts | 220° |
| 2026-05-08 05:12 | 56.61503 | 18.55538 | 34227 ft | 462 kts | 220° |
| 2026-05-08 05:12 | 56.56757 | 18.47834 | 34231 ft | 462 kts | 220° |
| 2026-05-08 05:13 | 56.51973 | 18.40093 | 34222 ft | 461 kts | 220° |
| 2026-05-08 05:13 | 56.47206 | 18.32411 | 34210 ft | 461 kts | 219° |
| 2026-05-08 05:14 | 56.42434 | 18.24744 | 34226 ft | 461 kts | 219° |
| 2026-05-08 05:14 | 56.37678 | 18.17131 | 34220 ft | 461 kts | 219° |
| 2026-05-08 05:15 | 56.32910 | 18.09523 | 34219 ft | 460 kts | 219° |
| 2026-05-08 05:15 | 56.28117 | 18.01899 | 34220 ft | 460 kts | 219° |
| 2026-05-08 05:16 | 56.23336 | 17.94327 | 34230 ft | 460 kts | 219° |
| 2026-05-08 05:16 | 56.18530 | 17.86743 | 34218 ft | 461 kts | 219° |
| 2026-05-08 05:17 | 56.13744 | 17.79211 | 34228 ft | 460 kts | 219° |
| 2026-05-08 05:17 | 56.08951 | 17.71694 | 34219 ft | 460 kts | 219° |
| 2026-05-08 05:18 | 56.04169 | 17.64217 | 34216 ft | 460 kts | 219° |
| 2026-05-08 05:18 | 55.99343 | 17.56701 | 34209 ft | 461 kts | 219° |
| 2026-05-08 05:19 | 55.94532 | 17.49230 | 34207 ft | 462 kts | 219° |
| 2026-05-08 05:19 | 55.89687 | 17.41734 | 34217 ft | 461 kts | 219° |
| 2026-05-08 05:20 | 55.84859 | 17.34332 | 34202 ft | 461 kts | 217° |
| 2026-05-08 05:20 | 55.79671 | 17.27729 | 34203 ft | 459 kts | 210° |
| 2026-05-08 05:21 | 55.74068 | 17.22466 | 34198 ft | 457 kts | 202° |
| 2026-05-08 05:21 | 55.68210 | 17.18284 | 34207 ft | 456 kts | 200° |
| 2026-05-08 05:22 | 55.62490 | 17.13573 | 34207 ft | 456 kts | 206° |
| 2026-05-08 05:22 | 55.57073 | 17.07754 | 34188 ft | 457 kts | 213° |
| 2026-05-08 05:23 | 55.51885 | 17.01286 | 34202 ft | 457 kts | 213° |
| 2026-05-08 05:23 | 55.46716 | 16.94885 | 34212 ft | 457 kts | 213° |
| 2026-05-08 05:24 | 55.41490 | 16.88431 | 34204 ft | 457 kts | 213° |
| 2026-05-08 05:24 | 55.36304 | 16.82047 | 34207 ft | 458 kts | 213° |
| 2026-05-08 05:25 | 55.31109 | 16.75672 | 34214 ft | 458 kts | 213° |
| 2026-05-08 05:25 | 55.25883 | 16.69279 | 34205 ft | 458 kts | 213° |
| 2026-05-08 05:26 | 55.20683 | 16.62939 | 34197 ft | 458 kts | 213° |
| 2026-05-08 05:26 | 55.15461 | 16.56592 | 34201 ft | 458 kts | 213° |
| 2026-05-08 05:27 | 55.10260 | 16.50295 | 34201 ft | 457 kts | 214° |
| 2026-05-08 05:27 | 55.05064 | 16.44019 | 34200 ft | 457 kts | 214° |
| 2026-05-08 05:28 | 54.99846 | 16.37737 | 34209 ft | 457 kts | 214° |
| 2026-05-08 05:28 | 54.94622 | 16.31469 | 34207 ft | 458 kts | 213° |
| 2026-05-08 05:29 | 54.89376 | 16.25195 | 34207 ft | 458 kts | 213° |
| 2026-05-08 05:29 | 54.84155 | 16.18970 | 34217 ft | 458 kts | 213° |
| 2026-05-08 05:30 | 54.78898 | 16.12721 | 34213 ft | 458 kts | 213° |
| 2026-05-08 05:30 | 54.73672 | 16.06533 | 34206 ft | 457 kts | 213° |
| 2026-05-08 05:31 | 54.68415 | 16.00327 | 34202 ft | 457 kts | 213° |
| 2026-05-08 05:31 | 54.63189 | 15.94178 | 34201 ft | 457 kts | 213° |
| 2026-05-08 05:32 | 54.57943 | 15.88020 | 34192 ft | 457 kts | 213° |
| 2026-05-08 05:32 | 54.52712 | 15.81901 | 34201 ft | 456 kts | 213° |
| 2026-05-08 05:33 | 54.47488 | 15.75811 | 34200 ft | 457 kts | 213° |
| 2026-05-08 05:33 | 54.42242 | 15.69716 | 34198 ft | 457 kts | 213° |
| 2026-05-08 05:34 | 54.36978 | 15.63618 | 34199 ft | 457 kts | 213° |
| 2026-05-08 05:34 | 54.31729 | 15.57556 | 34203 ft | 457 kts | 213° |
| 2026-05-08 05:35 | 54.26483 | 15.51521 | 34187 ft | 456 kts | 214° |
| 2026-05-08 05:35 | 54.21230 | 15.45495 | 34184 ft | 455 kts | 214° |
| 2026-05-08 05:36 | 54.15965 | 15.39461 | 34178 ft | 456 kts | 214° |
| 2026-05-08 05:36 | 54.10702 | 15.33452 | 34180 ft | 457 kts | 213° |
| 2026-05-08 05:37 | 54.05442 | 15.27474 | 34177 ft | 457 kts | 213° |
| 2026-05-08 05:37 | 54.00190 | 15.21522 | 34181 ft | 457 kts | 213° |
| 2026-05-08 05:38 | 53.94898 | 15.15545 | 34181 ft | 457 kts | 213° |
| 2026-05-08 05:38 | 53.89651 | 15.09636 | 34169 ft | 456 kts | 213° |
| 2026-05-08 05:39 | 53.84365 | 15.03696 | 34182 ft | 456 kts | 213° |
| 2026-05-08 05:39 | 53.79086 | 14.97781 | 34171 ft | 457 kts | 213° |
| 2026-05-08 05:40 | 53.73795 | 14.91878 | 34173 ft | 458 kts | 213° |
| 2026-05-08 05:40 | 53.68497 | 14.85985 | 34171 ft | 458 kts | 214° |
| 2026-05-08 05:41 | 53.63157 | 14.80059 | 34176 ft | 458 kts | 214° |
| 2026-05-08 05:41 | 53.57856 | 14.74192 | 34178 ft | 458 kts | 213° |
| 2026-05-08 05:42 | 53.52577 | 14.68374 | 34173 ft | 456 kts | 214° |
| 2026-05-08 05:42 | 53.47322 | 14.62593 | 34177 ft | 454 kts | 214° |
| 2026-05-08 05:43 | 53.42034 | 14.56794 | 34175 ft | 453 kts | 214° |
| 2026-05-08 05:43 | 53.36799 | 14.51070 | 34174 ft | 453 kts | 214° |
| 2026-05-08 05:44 | 53.31529 | 14.45323 | 34175 ft | 452 kts | 214° |
| 2026-05-08 05:44 | 53.26333 | 14.39537 | 34176 ft | 450 kts | 217° |
| 2026-05-08 05:45 | 53.21256 | 14.33457 | 34168 ft | 449 kts | 216° |
| 2026-05-08 05:45 | 53.16173 | 14.27399 | 34183 ft | 450 kts | 216° |
| 2026-05-08 05:46 | 53.11116 | 14.21383 | 34172 ft | 450 kts | 216° |
| 2026-05-08 05:46 | 53.06034 | 14.15351 | 34171 ft | 450 kts | 216° |
| 2026-05-08 05:47 | 53.00958 | 14.09340 | 34177 ft | 450 kts | 216° |
| 2026-05-08 05:47 | 52.95854 | 14.03313 | 34175 ft | 450 kts | 216° |
| 2026-05-08 05:48 | 52.90768 | 13.97330 | 34167 ft | 450 kts | 216° |
| 2026-05-08 05:48 | 52.85684 | 13.91365 | 34172 ft | 450 kts | 216° |
| 2026-05-08 05:49 | 52.80586 | 13.85399 | 34161 ft | 449 kts | 216° |
| 2026-05-08 05:49 | 52.75504 | 13.79470 | 34157 ft | 449 kts | 216° |
| 2026-05-08 05:50 | 52.70435 | 13.73573 | 34162 ft | 450 kts | 216° |
| 2026-05-08 05:50 | 52.65339 | 13.67664 | 34162 ft | 450 kts | 217° |
| 2026-05-08 05:51 | 52.60196 | 13.61715 | 34162 ft | 450 kts | 217° |
| 2026-05-08 05:51 | 52.55093 | 13.55830 | 34172 ft | 449 kts | 217° |
| 2026-05-08 05:52 | 52.49997 | 13.49971 | 34157 ft | 449 kts | 217° |
| 2026-05-08 05:52 | 52.44915 | 13.44145 | 34167 ft | 449 kts | 217° |
| 2026-05-08 05:53 | 52.39805 | 13.38302 | 34164 ft | 450 kts | 217° |
| 2026-05-08 05:53 | 52.34657 | 13.32433 | 34166 ft | 451 kts | 216° |
| 2026-05-08 05:54 | 52.29534 | 13.26610 | 34164 ft | 451 kts | 216° |
| 2026-05-08 05:54 | 52.24395 | 13.20787 | 34168 ft | 450 kts | 217° |
| 2026-05-08 05:55 | 52.19285 | 13.15010 | 34160 ft | 450 kts | 216° |
| 2026-05-08 05:55 | 52.14148 | 13.09219 | 34158 ft | 449 kts | 216° |
| 2026-05-08 05:56 | 52.09013 | 13.03452 | 34157 ft | 450 kts | 217° |
| 2026-05-08 05:56 | 52.03883 | 12.97704 | 34158 ft | 450 kts | 217° |
| 2026-05-08 05:57 | 51.98746 | 12.91963 | 34150 ft | 450 kts | 217° |
| 2026-05-08 05:57 | 51.93581 | 12.86209 | 34144 ft | 450 kts | 217° |
| 2026-05-08 05:58 | 51.88450 | 12.80505 | 34144 ft | 449 kts | 217° |
| 2026-05-08 05:58 | 51.83293 | 12.74792 | 34142 ft | 449 kts | 217° |
| 2026-05-08 05:59 | 51.78146 | 12.69106 | 34143 ft | 449 kts | 217° |
| 2026-05-08 05:59 | 51.72979 | 12.63415 | 34139 ft | 449 kts | 217° |
| 2026-05-08 06:00 | 51.67836 | 12.57764 | 34141 ft | 449 kts | 217° |
| 2026-05-08 06:00 | 51.62667 | 12.52103 | 34139 ft | 449 kts | 217° |
| 2026-05-08 06:01 | 51.57527 | 12.46489 | 34132 ft | 448 kts | 217° |
| 2026-05-08 06:01 | 51.52402 | 12.40908 | 34133 ft | 447 kts | 217° |
| 2026-05-08 06:02 | 51.47273 | 12.35334 | 34136 ft | 447 kts | 217° |
| 2026-05-08 06:02 | 51.42124 | 12.29756 | 34132 ft | 447 kts | 216° |
| 2026-05-08 06:03 | 51.36962 | 12.24178 | 34135 ft | 447 kts | 216° |
| 2026-05-08 06:03 | 51.31828 | 12.18648 | 34127 ft | 446 kts | 216° |
| 2026-05-08 06:04 | 51.26678 | 12.13114 | 34130 ft | 446 kts | 216° |
| 2026-05-08 06:04 | 51.21567 | 12.07637 | 34123 ft | 445 kts | 216° |
| 2026-05-08 06:05 | 51.16425 | 12.02143 | 34123 ft | 445 kts | 216° |
| 2026-05-08 06:05 | 51.11317 | 11.96698 | 34118 ft | 445 kts | 216° |
| 2026-05-08 06:06 | 51.06195 | 11.91256 | 34119 ft | 444 kts | 216° |
| 2026-05-08 06:06 | 51.01067 | 11.85819 | 34117 ft | 444 kts | 216° |
| 2026-05-08 06:07 | 50.95933 | 11.80391 | 34113 ft | 444 kts | 216° |
| 2026-05-08 06:07 | 50.90813 | 11.74993 | 34106 ft | 444 kts | 216° |
| 2026-05-08 06:08 | 50.85692 | 11.69609 | 34111 ft | 445 kts | 216° |
| 2026-05-08 06:08 | 50.80509 | 11.64175 | 34104 ft | 445 kts | 217° |
| 2026-05-08 06:09 | 50.75399 | 11.58831 | 34109 ft | 445 kts | 217° |
| 2026-05-08 06:09 | 50.70233 | 11.53444 | 34100 ft | 444 kts | 217° |
| 2026-05-08 06:10 | 50.65120 | 11.48123 | 34099 ft | 443 kts | 216° |
| 2026-05-08 06:10 | 50.59999 | 11.42808 | 34089 ft | 443 kts | 216° |
| 2026-05-08 06:11 | 50.54844 | 11.37475 | 34080 ft | 443 kts | 216° |
| 2026-05-08 06:11 | 50.49745 | 11.32215 | 34074 ft | 443 kts | 216° |
| 2026-05-08 06:12 | 50.44590 | 11.26911 | 34077 ft | 443 kts | 216° |
| 2026-05-08 06:12 | 50.39438 | 11.21622 | 34076 ft | 443 kts | 216° |
| 2026-05-08 06:13 | 50.34324 | 11.16384 | 34084 ft | 443 kts | 216° |
| 2026-05-08 06:13 | 50.29342 | 11.10815 | 34081 ft | 440 kts | 220° |
| 2026-05-08 06:14 | 50.24311 | 11.05366 | 34088 ft | 442 kts | 215° |
| 2026-05-08 06:14 | 50.19150 | 11.00298 | 34094 ft | 441 kts | 215° |
| 2026-05-08 06:15 | 50.13985 | 10.95186 | 34087 ft | 441 kts | 215° |
| 2026-05-08 06:15 | 50.08816 | 10.90038 | 34092 ft | 441 kts | 215° |
| 2026-05-08 06:16 | 50.03659 | 10.84904 | 34086 ft | 441 kts | 215° |
| 2026-05-08 06:16 | 49.98523 | 10.79798 | 34086 ft | 441 kts | 215° |
| 2026-05-08 06:17 | 49.90777 | 10.72117 | 34089 ft | 440 kts | 215° |
| 2026-05-08 06:17 | 49.85654 | 10.67052 | 34087 ft | 439 kts | 215° |
| 2026-05-08 06:18 | 49.80506 | 10.61978 | 34083 ft | 438 kts | 215° |
| 2026-05-08 06:18 | 49.75224 | 10.57262 | 34089 ft | 440 kts | 210° |
| 2026-05-08 06:19 | 49.69606 | 10.53457 | 34082 ft | 443 kts | 204° |
| 2026-05-08 06:19 | 49.63804 | 10.50316 | 34080 ft | 443 kts | 202° |
| 2026-05-08 06:20 | 49.58004 | 10.47186 | 34089 ft | 443 kts | 202° |
| 2026-05-08 06:20 | 49.52222 | 10.44074 | 34086 ft | 443 kts | 202° |
| 2026-05-08 06:21 | 49.46405 | 10.40954 | 34087 ft | 442 kts | 202° |
| 2026-05-08 06:21 | 49.40618 | 10.37857 | 34086 ft | 442 kts | 202° |
| 2026-05-08 06:22 | 49.34851 | 10.34777 | 34077 ft | 441 kts | 201° |
| 2026-05-08 06:22 | 49.29068 | 10.31696 | 34077 ft | 441 kts | 201° |
| 2026-05-08 06:23 | 49.23260 | 10.28608 | 34075 ft | 440 kts | 202° |
| 2026-05-08 06:23 | 49.17724 | 10.24708 | 34070 ft | 437 kts | 212° |
| 2026-05-08 06:24 | 49.12795 | 10.19476 | 34068 ft | 434 kts | 221° |
| 2026-05-08 06:24 | 49.08543 | 10.13036 | 34069 ft | 432 kts | 231° |
| 2026-05-08 06:25 | 49.04766 | 10.05936 | 34071 ft | 431 kts | 232° |
| 2026-05-08 06:25 | 49.01012 | 9.98821 | 34073 ft | 432 kts | 232° |
| 2026-05-08 06:26 | 48.97255 | 9.91731 | 34075 ft | 431 kts | 232° |
| 2026-05-08 06:26 | 48.93514 | 9.84695 | 34079 ft | 431 kts | 232° |
| 2026-05-08 06:27 | 48.89746 | 9.77634 | 34074 ft | 432 kts | 232° |
| 2026-05-08 06:27 | 48.85967 | 9.70581 | 34077 ft | 432 kts | 232° |
| 2026-05-08 06:28 | 48.82169 | 9.63515 | 34079 ft | 432 kts | 232° |
| 2026-05-08 06:28 | 48.78371 | 9.56460 | 34077 ft | 432 kts | 232° |
| 2026-05-08 06:29 | 48.74575 | 9.49429 | 34075 ft | 432 kts | 232° |
| 2026-05-08 06:29 | 48.70786 | 9.42431 | 34075 ft | 432 kts | 231° |
| 2026-05-08 06:30 | 48.66946 | 9.35485 | 34074 ft | 433 kts | 228° |
| 2026-05-08 06:30 | 48.62541 | 9.29506 | 34073 ft | 434 kts | 217° |
| 2026-05-08 06:31 | 48.57409 | 9.24784 | 34075 ft | 435 kts | 207° |
| 2026-05-08 06:31 | 48.51749 | 9.21543 | 34075 ft | 437 kts | 198° |
| 2026-05-08 06:32 | 48.45897 | 9.18952 | 34075 ft | 437 kts | 198° |
| 2026-05-08 06:32 | 48.40095 | 9.16409 | 34073 ft | 437 kts | 198° |
| 2026-05-08 06:33 | 48.34278 | 9.13861 | 34071 ft | 437 kts | 198° |
| 2026-05-08 06:33 | 48.28430 | 9.11302 | 34068 ft | 437 kts | 198° |
| 2026-05-08 06:34 | 48.22638 | 9.08772 | 34065 ft | 436 kts | 198° |
| 2026-05-08 06:34 | 48.16832 | 9.06243 | 34065 ft | 436 kts | 198° |
| 2026-05-08 06:35 | 48.10998 | 9.03703 | 34067 ft | 436 kts | 198° |
| 2026-05-08 06:35 | 48.05188 | 9.01183 | 34069 ft | 435 kts | 197° |
| 2026-05-08 06:36 | 47.99406 | 8.98680 | 34068 ft | 435 kts | 197° |
| 2026-05-08 06:36 | 47.93608 | 8.96177 | 34076 ft | 435 kts | 197° |
| 2026-05-08 06:37 | 47.87809 | 8.93676 | 34075 ft | 434 kts | 198° |
| 2026-05-08 06:37 | 47.81994 | 8.91176 | 34363 ft | 434 kts | 198° |
| 2026-05-08 06:38 | 47.79113 | 8.89936 | 34627 ft | 432 kts | 198° |
| 2026-05-08 06:38 | 47.76231 | 8.88550 | 34800 ft | 431 kts | 200° |
| 2026-05-08 06:38 | 47.73380 | 8.87139 | 34930 ft | 432 kts | 200° |
| 2026-05-08 06:38 | 47.70541 | 8.85742 | 35042 ft | 431 kts | 200° |
| 2026-05-08 06:39 | 47.64877 | 8.82956 | 35064 ft | 429 kts | 200° |
| 2026-05-08 06:39 | 47.59223 | 8.80173 | 35070 ft | 428 kts | 200° |
| 2026-05-08 06:40 | 47.53578 | 8.77397 | 35063 ft | 427 kts | 200° |
| 2026-05-08 06:40 | 47.47917 | 8.74618 | 35057 ft | 426 kts | 200° |
| 2026-05-08 06:41 | 47.42320 | 8.71879 | 35057 ft | 425 kts | 200° |
| 2026-05-08 06:41 | 47.36700 | 8.69132 | 35049 ft | 425 kts | 200° |
| 2026-05-08 06:42 | 47.31115 | 8.66410 | 35052 ft | 424 kts | 200° |
| 2026-05-08 06:42 | 47.25513 | 8.63683 | 35047 ft | 424 kts | 200° |
| 2026-05-08 06:43 | 47.19935 | 8.60974 | 35044 ft | 422 kts | 201° |
| 2026-05-08 06:43 | 47.14370 | 8.58278 | 35039 ft | 421 kts | 201° |
| 2026-05-08 06:44 | 47.08755 | 8.55981 | 35037 ft | 423 kts | 195° |
| 2026-05-08 06:44 | 47.02949 | 8.54681 | 35030 ft | 425 kts | 188° |
| 2026-05-08 06:45 | 46.97006 | 8.54427 | 35063 ft | 427 kts | 182° |
| 2026-05-08 06:45 | 46.91108 | 8.55124 | 35046 ft | 428 kts | 179° |
| 2026-05-08 06:46 | 46.85456 | 8.55922 | 35038 ft | 427 kts | 179° |
| 2026-05-08 06:46 | 46.79533 | 8.56760 | 35003 ft | 427 kts | 179° |
| 2026-05-08 06:47 | 46.73632 | 8.57597 | 35041 ft | 426 kts | 179° |
| 2026-05-08 06:47 | 46.67735 | 8.58433 | 35060 ft | 426 kts | 179° |
| 2026-05-08 06:48 | 46.61807 | 8.59273 | 35075 ft | 427 kts | 179° |
| 2026-05-08 06:48 | 46.55911 | 8.60114 | 35069 ft | 425 kts | 179° |
| 2026-05-08 06:49 | 46.49997 | 8.60957 | 35078 ft | 426 kts | 179° |
| 2026-05-08 06:49 | 46.44127 | 8.61788 | 35079 ft | 424 kts | 179° |
| 2026-05-08 06:50 | 46.38262 | 8.62615 | 35069 ft | 424 kts | 179° |
| 2026-05-08 06:50 | 46.32398 | 8.63439 | 35078 ft | 423 kts | 179° |
| 2026-05-08 06:51 | 46.26510 | 8.64265 | 35065 ft | 422 kts | 179° |
| 2026-05-08 06:51 | 46.20685 | 8.65080 | 35055 ft | 421 kts | 179° |
| 2026-05-08 06:52 | 46.14865 | 8.65819 | 35047 ft | 420 kts | 181° |
| 2026-05-08 06:52 | 46.09046 | 8.65857 | 35054 ft | 417 kts | 187° |
| 2026-05-08 06:53 | 46.03266 | 8.65042 | 35044 ft | 413 kts | 192° |
| 2026-05-08 06:53 | 45.97609 | 8.63884 | 35044 ft | 413 kts | 191° |
| 2026-05-08 06:54 | 45.91871 | 8.62726 | 35045 ft | 413 kts | 192° |
| 2026-05-08 06:54 | 45.86697 | 8.61677 | 35047 ft | 412 kts | 192° |
| 2026-05-08 06:55 | 45.80984 | 8.60517 | 35048 ft | 413 kts | 192° |
| 2026-05-08 06:55 | 45.75310 | 8.59367 | 35050 ft | 413 kts | 191° |
| 2026-05-08 06:56 | 45.69612 | 8.58216 | 35050 ft | 413 kts | 191° |
| 2026-05-08 06:56 | 45.63928 | 8.57069 | 35049 ft | 413 kts | 191° |
| 2026-05-08 06:57 | 45.58245 | 8.55921 | 35046 ft | 414 kts | 191° |
| 2026-05-08 06:57 | 45.52538 | 8.54775 | 35047 ft | 413 kts | 191° |
| 2026-05-08 06:58 | 45.46829 | 8.53629 | 35049 ft | 414 kts | 191° |
| 2026-05-08 06:58 | 45.41120 | 8.52486 | 35044 ft | 413 kts | 191° |
| 2026-05-08 06:59 | 45.35432 | 8.51349 | 35047 ft | 413 kts | 191° |
| 2026-05-08 06:59 | 45.29724 | 8.50209 | 35042 ft | 414 kts | 191° |
| 2026-05-08 07:00 | 45.24007 | 8.49071 | 35038 ft | 414 kts | 191° |
| 2026-05-08 07:00 | 45.18271 | 8.47933 | 35041 ft | 414 kts | 191° |
| 2026-05-08 07:01 | 45.12546 | 8.46796 | 35034 ft | 415 kts | 191° |
| 2026-05-08 07:01 | 45.06835 | 8.45667 | 35037 ft | 415 kts | 191° |
| 2026-05-08 07:02 | 45.01094 | 8.44532 | 35031 ft | 416 kts | 191° |
| 2026-05-08 07:02 | 44.95381 | 8.43407 | 35028 ft | 416 kts | 191° |
| 2026-05-08 07:03 | 44.89942 | 8.42338 | 35023 ft | 415 kts | 191° |
| 2026-05-08 07:03 | 44.85267 | 8.41421 | 35020 ft | 415 kts | 191° |
| 2026-05-08 07:04 | 44.79557 | 8.40302 | 35012 ft | 416 kts | 191° |
| 2026-05-08 07:04 | 44.73819 | 8.39180 | 34867 ft | 417 kts | 191° |